sensor_id;sensor_type;location;lat;lon;timestamp;P1;durP1;ratioP1;P2;durP2;ratioP2
59734;SDS011;64362;45.620;4.920;2022-12-13T00:00:46;13.73;;;9.05;;
59734;SDS011;64362;45.620;4.920;2022-12-13T00:03:11;14.07;;;9.27;;
59734;SDS011;64362;45.620;4.920;2022-12-13T00:05:44;13.98;;;9.55;;
59734;SDS011;64362;45.620;4.920;2022-12-13T00:08:17;13.40;;;9.30;;
59734;SDS011;64362;45.620;4.920;2022-12-13T00:10:42;13.15;;;9.57;;
59734;SDS011;64362;45.620;4.920;2022-12-13T00:13:14;14.40;;;9.65;;
59734;SDS011;64362;45.620;4.920;2022-12-13T00:15:54;14.88;;;9.48;;
59734;SDS011;64362;45.620;4.920;2022-12-13T00:18:27;13.35;;;9.48;;
59734;SDS011;64362;45.620;4.920;2022-12-13T00:20:59;14.27;;;9.75;;
59734;SDS011;64362;45.620;4.920;2022-12-13T00:23:29;13.95;;;10.07;;
59734;SDS011;64362;45.620;4.920;2022-12-13T00:26:02;13.68;;;9.38;;
59734;SDS011;64362;45.620;4.920;2022-12-13T00:28:28;14.07;;;10.02;;
59734;SDS011;64362;45.620;4.920;2022-12-13T00:31:00;13.25;;;9.90;;
59734;SDS011;64362;45.620;4.920;2022-12-13T00:33:27;13.00;;;9.55;;
59734;SDS011;64362;45.620;4.920;2022-12-13T00:36:01;12.10;;;8.88;;
59734;SDS011;64362;45.620;4.920;2022-12-13T00:38:34;13.52;;;9.85;;
59734;SDS011;64362;45.620;4.920;2022-12-13T00:41:14;12.75;;;9.20;;
59734;SDS011;64362;45.620;4.920;2022-12-13T00:43:47;14.45;;;9.77;;
59734;SDS011;64362;45.620;4.920;2022-12-13T00:46:13;15.43;;;9.27;;
59734;SDS011;64362;45.620;4.920;2022-12-13T00:48:56;13.38;;;9.63;;
59734;SDS011;64362;45.620;4.920;2022-12-13T00:51:31;13.00;;;9.52;;
59734;SDS011;64362;45.620;4.920;2022-12-13T00:53:58;13.60;;;10.00;;
59734;SDS011;64362;45.620;4.920;2022-12-13T00:56:31;12.55;;;9.18;;
59734;SDS011;64362;45.620;4.920;2022-12-13T00:59:04;11.95;;;8.93;;
59734;SDS011;64362;45.620;4.920;2022-12-13T01:01:30;12.35;;;9.45;;
59734;SDS011;64362;45.620;4.920;2022-12-13T01:04:03;12.00;;;9.27;;
59734;SDS011;64362;45.620;4.920;2022-12-13T01:06:37;12.77;;;9.73;;
59734;SDS011;64362;45.620;4.920;2022-12-13T01:09:18;13.30;;;9.98;;
59734;SDS011;64362;45.620;4.920;2022-12-13T01:11:56;13.18;;;8.75;;
59734;SDS011;64362;45.620;4.920;2022-12-13T01:14:30;14.07;;;9.82;;
59734;SDS011;64362;45.620;4.920;2022-12-13T01:17:02;11.18;;;8.43;;
59734;SDS011;64362;45.620;4.920;2022-12-13T01:19:34;12.70;;;9.10;;
59734;SDS011;64362;45.620;4.920;2022-12-13T01:22:06;14.32;;;9.43;;
59734;SDS011;64362;45.620;4.920;2022-12-13T01:24:32;12.52;;;9.65;;
59734;SDS011;64362;45.620;4.920;2022-12-13T01:27:04;11.15;;;8.98;;
59734;SDS011;64362;45.620;4.920;2022-12-13T01:29:29;12.52;;;9.80;;
59734;SDS011;64362;45.620;4.920;2022-12-13T01:32:02;13.13;;;9.85;;
59734;SDS011;64362;45.620;4.920;2022-12-13T01:34:27;12.48;;;9.30;;
59734;SDS011;64362;45.620;4.920;2022-12-13T01:37:00;12.73;;;9.68;;
59734;SDS011;64362;45.620;4.920;2022-12-13T01:39:32;12.13;;;9.05;;
59734;SDS011;64362;45.620;4.920;2022-12-13T01:42:04;12.90;;;9.40;;
59734;SDS011;64362;45.620;4.920;2022-12-13T01:50:17;14.30;;;10.50;;
59734;SDS011;64362;45.620;4.920;2022-12-13T01:52:53;11.48;;;9.23;;
59734;SDS011;64362;45.620;4.920;2022-12-13T01:55:20;11.77;;;9.05;;
59734;SDS011;64362;45.620;4.920;2022-12-13T01:57:53;12.70;;;9.50;;
59734;SDS011;64362;45.620;4.920;2022-12-13T02:00:26;13.05;;;9.40;;
59734;SDS011;64362;45.620;4.920;2022-12-13T02:02:53;12.23;;;9.18;;
59734;SDS011;64362;45.620;4.920;2022-12-13T02:05:29;12.88;;;9.68;;
59734;SDS011;64362;45.620;4.920;2022-12-13T02:08:04;10.80;;;8.48;;
59734;SDS011;64362;45.620;4.920;2022-12-13T02:10:38;13.10;;;9.32;;
59734;SDS011;64362;45.620;4.920;2022-12-13T02:13:04;12.23;;;9.55;;
59734;SDS011;64362;45.620;4.920;2022-12-13T02:21:20;12.15;;;9.32;;
59734;SDS011;64362;45.620;4.920;2022-12-13T02:26:51;12.43;;;9.43;;
59734;SDS011;64362;45.620;4.920;2022-12-13T02:35:19;12.90;;;9.20;;
59734;SDS011;64362;45.620;4.920;2022-12-13T02:46:57;11.63;;;8.70;;
59734;SDS011;64362;45.620;4.920;2022-12-13T02:49:40;10.60;;;7.82;;
59734;SDS011;64362;45.620;4.920;2022-12-13T02:52:07;11.95;;;8.45;;
59734;SDS011;64362;45.620;4.920;2022-12-13T02:54:40;11.13;;;8.50;;
59734;SDS011;64362;45.620;4.920;2022-12-13T03:00:06;11.73;;;9.00;;
59734;SDS011;64362;45.620;4.920;2022-12-13T03:15:23;10.77;;;7.97;;
59734;SDS011;64362;45.620;4.920;2022-12-13T03:18:08;10.98;;;8.57;;
59734;SDS011;64362;45.620;4.920;2022-12-13T03:20:47;11.68;;;8.73;;
59734;SDS011;64362;45.620;4.920;2022-12-13T03:23:15;11.18;;;9.15;;
59734;SDS011;64362;45.620;4.920;2022-12-13T03:25:49;11.02;;;8.90;;
59734;SDS011;64362;45.620;4.920;2022-12-13T03:28:16;11.07;;;8.52;;
59734;SDS011;64362;45.620;4.920;2022-12-13T03:30:48;12.90;;;9.57;;
59734;SDS011;64362;45.620;4.920;2022-12-13T03:33:14;11.23;;;8.65;;
59734;SDS011;64362;45.620;4.920;2022-12-13T03:35:46;12.35;;;9.18;;
59734;SDS011;64362;45.620;4.920;2022-12-13T03:38:18;11.68;;;9.25;;
59734;SDS011;64362;45.620;4.920;2022-12-13T03:40:51;12.73;;;9.40;;
59734;SDS011;64362;45.620;4.920;2022-12-13T03:43:18;12.43;;;9.75;;
59734;SDS011;64362;45.620;4.920;2022-12-13T03:45:51;12.95;;;9.40;;
59734;SDS011;64362;45.620;4.920;2022-12-13T03:48:17;11.40;;;9.00;;
59734;SDS011;64362;45.620;4.920;2022-12-13T03:50:50;12.52;;;9.15;;
59734;SDS011;64362;45.620;4.920;2022-12-13T03:53:16;12.18;;;8.85;;
59734;SDS011;64362;45.620;4.920;2022-12-13T03:55:48;12.60;;;9.35;;
59734;SDS011;64362;45.620;4.920;2022-12-13T03:58:14;12.02;;;9.27;;
59734;SDS011;64362;45.620;4.920;2022-12-13T04:00:45;11.60;;;9.07;;
59734;SDS011;64362;45.620;4.920;2022-12-13T04:03:11;10.93;;;8.85;;
59734;SDS011;64362;45.620;4.920;2022-12-13T04:05:43;10.75;;;8.73;;
59734;SDS011;64362;45.620;4.920;2022-12-13T04:08:09;11.30;;;9.32;;
59734;SDS011;64362;45.620;4.920;2022-12-13T04:10:40;10.57;;;8.70;;
59734;SDS011;64362;45.620;4.920;2022-12-13T04:13:12;10.13;;;8.25;;
59734;SDS011;64362;45.620;4.920;2022-12-13T04:16:03;11.23;;;8.63;;
59734;SDS011;64362;45.620;4.920;2022-12-13T04:18:29;9.93;;;8.70;;
59734;SDS011;64362;45.620;4.920;2022-12-13T04:21:01;11.10;;;8.73;;
59734;SDS011;64362;45.620;4.920;2022-12-13T04:23:33;12.00;;;9.45;;
59734;SDS011;64362;45.620;4.920;2022-12-13T04:25:59;10.07;;;8.13;;
59734;SDS011;64362;45.620;4.920;2022-12-13T04:28:31;10.57;;;8.85;;
59734;SDS011;64362;45.620;4.920;2022-12-13T04:30:57;10.40;;;8.05;;
59734;SDS011;64362;45.620;4.920;2022-12-13T04:33:29;10.25;;;8.63;;
59734;SDS011;64362;45.620;4.920;2022-12-13T04:35:56;9.48;;;7.90;;
59734;SDS011;64362;45.620;4.920;2022-12-13T04:38:28;9.75;;;8.35;;
59734;SDS011;64362;45.620;4.920;2022-12-13T04:41:03;10.60;;;7.97;;
59734;SDS011;64362;45.620;4.920;2022-12-13T04:43:35;10.63;;;8.68;;
59734;SDS011;64362;45.620;4.920;2022-12-13T04:46:01;10.57;;;8.32;;
59734;SDS011;64362;45.620;4.920;2022-12-13T04:48:32;8.95;;;8.02;;
59734;SDS011;64362;45.620;4.920;2022-12-13T04:51:04;9.48;;;8.32;;
59734;SDS011;64362;45.620;4.920;2022-12-13T04:53:30;10.25;;;8.18;;
59734;SDS011;64362;45.620;4.920;2022-12-13T04:56:02;9.23;;;7.85;;
59734;SDS011;64362;45.620;4.920;2022-12-13T04:58:29;9.75;;;8.65;;
59734;SDS011;64362;45.620;4.920;2022-12-13T05:01:05;10.20;;;8.13;;
59734;SDS011;64362;45.620;4.920;2022-12-13T05:03:38;10.30;;;8.10;;
59734;SDS011;64362;45.620;4.920;2022-12-13T05:06:11;10.55;;;8.32;;
59734;SDS011;64362;45.620;4.920;2022-12-13T05:08:38;10.93;;;9.00;;
59734;SDS011;64362;45.620;4.920;2022-12-13T05:11:10;10.23;;;8.95;;
59734;SDS011;64362;45.620;4.920;2022-12-13T05:13:42;11.50;;;8.80;;
59734;SDS011;64362;45.620;4.920;2022-12-13T05:16:14;11.63;;;9.15;;
59734;SDS011;64362;45.620;4.920;2022-12-13T05:18:40;11.05;;;9.38;;
59734;SDS011;64362;45.620;4.920;2022-12-13T05:21:12;12.32;;;9.70;;
59734;SDS011;64362;45.620;4.920;2022-12-13T05:23:44;11.35;;;9.07;;
59734;SDS011;64362;45.620;4.920;2022-12-13T05:26:10;11.05;;;9.00;;
59734;SDS011;64362;45.620;4.920;2022-12-13T05:28:41;10.68;;;8.43;;
59734;SDS011;64362;45.620;4.920;2022-12-13T05:31:08;10.15;;;8.77;;
59734;SDS011;64362;45.620;4.920;2022-12-13T05:33:41;10.07;;;8.53;;
59734;SDS011;64362;45.620;4.920;2022-12-13T05:36:07;9.32;;;7.75;;
59734;SDS011;64362;45.620;4.920;2022-12-13T05:38:40;10.77;;;7.80;;
59734;SDS011;64362;45.620;4.920;2022-12-13T05:41:14;9.43;;;8.02;;
59734;SDS011;64362;45.620;4.920;2022-12-13T05:43:47;8.20;;;7.38;;
59734;SDS011;64362;45.620;4.920;2022-12-13T05:46:19;9.43;;;7.40;;
59734;SDS011;64362;45.620;4.920;2022-12-13T05:48:45;9.88;;;7.25;;
59734;SDS011;64362;45.620;4.920;2022-12-13T05:51:16;8.18;;;7.38;;
59734;SDS011;64362;45.620;4.920;2022-12-13T05:53:42;9.57;;;7.43;;
59734;SDS011;64362;45.620;4.920;2022-12-13T05:56:13;8.38;;;7.47;;
59734;SDS011;64362;45.620;4.920;2022-12-13T05:58:45;9.05;;;7.60;;
59734;SDS011;64362;45.620;4.920;2022-12-13T06:01:18;10.18;;;8.00;;
59734;SDS011;64362;45.620;4.920;2022-12-13T06:03:43;8.68;;;7.43;;
59734;SDS011;64362;45.620;4.920;2022-12-13T06:06:16;9.25;;;7.20;;
59734;SDS011;64362;45.620;4.920;2022-12-13T06:08:52;8.85;;;7.20;;
59734;SDS011;64362;45.620;4.920;2022-12-13T06:11:17;8.80;;;7.50;;
59734;SDS011;64362;45.620;4.920;2022-12-13T06:13:49;11.05;;;8.85;;
59734;SDS011;64362;45.620;4.920;2022-12-13T06:16:16;11.77;;;8.15;;
59734;SDS011;64362;45.620;4.920;2022-12-13T06:18:48;11.40;;;8.00;;
59734;SDS011;64362;45.620;4.920;2022-12-13T06:21:13;12.75;;;8.32;;
59734;SDS011;64362;45.620;4.920;2022-12-13T06:23:45;11.20;;;8.05;;
59734;SDS011;64362;45.620;4.920;2022-12-13T06:26:17;9.40;;;8.35;;
59734;SDS011;64362;45.620;4.920;2022-12-13T06:28:42;11.18;;;8.25;;
59734;SDS011;64362;45.620;4.920;2022-12-13T06:31:14;11.70;;;8.43;;
59734;SDS011;64362;45.620;4.920;2022-12-13T06:33:39;9.98;;;7.70;;
59734;SDS011;64362;45.620;4.920;2022-12-13T06:36:11;9.85;;;7.75;;
59734;SDS011;64362;45.620;4.920;2022-12-13T06:38:36;9.70;;;7.70;;
59734;SDS011;64362;45.620;4.920;2022-12-13T06:41:13;10.18;;;7.85;;
59734;SDS011;64362;45.620;4.920;2022-12-13T06:43:47;8.95;;;7.75;;
59734;SDS011;64362;45.620;4.920;2022-12-13T06:46:13;10.30;;;7.88;;
59734;SDS011;64362;45.620;4.920;2022-12-13T06:48:53;10.55;;;7.70;;
59734;SDS011;64362;45.620;4.920;2022-12-13T06:51:25;9.77;;;7.53;;
59734;SDS011;64362;45.620;4.920;2022-12-13T06:53:50;9.57;;;7.85;;
59734;SDS011;64362;45.620;4.920;2022-12-13T06:56:23;12.50;;;8.38;;
59734;SDS011;64362;45.620;4.920;2022-12-13T06:58:48;10.80;;;7.95;;
59734;SDS011;64362;45.620;4.920;2022-12-13T07:01:20;10.15;;;8.48;;
59734;SDS011;64362;45.620;4.920;2022-12-13T07:03:55;11.57;;;8.05;;
59734;SDS011;64362;45.620;4.920;2022-12-13T07:06:22;15.30;;;8.80;;
59734;SDS011;64362;45.620;4.920;2022-12-13T07:08:55;11.25;;;8.57;;
59734;SDS011;64362;45.620;4.920;2022-12-13T07:11:22;12.00;;;8.75;;
59734;SDS011;64362;45.620;4.920;2022-12-13T07:13:56;11.97;;;8.07;;
59734;SDS011;64362;45.620;4.920;2022-12-13T07:16:29;10.98;;;8.75;;
59734;SDS011;64362;45.620;4.920;2022-12-13T07:18:55;11.55;;;9.02;;
59734;SDS011;64362;45.620;4.920;2022-12-13T07:21:31;12.82;;;8.38;;
59734;SDS011;64362;45.620;4.920;2022-12-13T07:24:03;12.30;;;7.90;;
59734;SDS011;64362;45.620;4.920;2022-12-13T07:26:35;10.18;;;7.68;;
59734;SDS011;64362;45.620;4.920;2022-12-13T07:29:02;10.77;;;7.80;;
59734;SDS011;64362;45.620;4.920;2022-12-13T07:31:34;10.27;;;7.78;;
59734;SDS011;64362;45.620;4.920;2022-12-13T07:34:00;10.15;;;7.95;;
59734;SDS011;64362;45.620;4.920;2022-12-13T07:36:33;11.13;;;7.90;;
59734;SDS011;64362;45.620;4.920;2022-12-13T07:39:12;10.93;;;7.60;;
59734;SDS011;64362;45.620;4.920;2022-12-13T07:41:44;8.27;;;7.28;;
59734;SDS011;64362;45.620;4.920;2022-12-13T07:44:16;11.38;;;7.85;;
59734;SDS011;64362;45.620;4.920;2022-12-13T07:46:41;10.15;;;7.78;;
59734;SDS011;64362;45.620;4.920;2022-12-13T07:49:20;11.15;;;7.80;;
59734;SDS011;64362;45.620;4.920;2022-12-13T07:51:52;10.07;;;7.50;;
59734;SDS011;64362;45.620;4.920;2022-12-13T07:54:17;10.05;;;8.05;;
59734;SDS011;64362;45.620;4.920;2022-12-13T07:56:49;10.57;;;7.80;;
59734;SDS011;64362;45.620;4.920;2022-12-13T07:59:14;10.57;;;7.72;;
59734;SDS011;64362;45.620;4.920;2022-12-13T08:01:47;10.20;;;7.90;;
59734;SDS011;64362;45.620;4.920;2022-12-13T08:04:12;10.98;;;8.30;;
59734;SDS011;64362;45.620;4.920;2022-12-13T08:06:44;10.75;;;7.90;;
59734;SDS011;64362;45.620;4.920;2022-12-13T08:09:09;9.02;;;7.80;;
59734;SDS011;64362;45.620;4.920;2022-12-13T08:11:41;10.05;;;7.85;;
59734;SDS011;64362;45.620;4.920;2022-12-13T08:14:13;12.38;;;8.00;;
59734;SDS011;64362;45.620;4.920;2022-12-13T08:16:45;9.07;;;7.95;;
59734;SDS011;64362;45.620;4.920;2022-12-13T08:19:17;13.07;;;8.90;;
59734;SDS011;64362;45.620;4.920;2022-12-13T08:21:49;10.02;;;8.10;;
59734;SDS011;64362;45.620;4.920;2022-12-13T08:24:18;10.68;;;8.20;;
59734;SDS011;64362;45.620;4.920;2022-12-13T08:26:52;12.02;;;8.48;;
59734;SDS011;64362;45.620;4.920;2022-12-13T08:29:18;11.63;;;8.45;;
59734;SDS011;64362;45.620;4.920;2022-12-13T08:31:51;10.55;;;8.10;;
59734;SDS011;64362;45.620;4.920;2022-12-13T08:34:23;10.70;;;7.88;;
59734;SDS011;64362;45.620;4.920;2022-12-13T08:36:48;11.45;;;8.32;;
59734;SDS011;64362;45.620;4.920;2022-12-13T08:39:20;10.40;;;7.28;;
59734;SDS011;64362;45.620;4.920;2022-12-13T08:41:45;10.50;;;8.32;;
59734;SDS011;64362;45.620;4.920;2022-12-13T08:44:17;9.50;;;7.93;;
59734;SDS011;64362;45.620;4.920;2022-12-13T08:46:42;10.60;;;8.45;;
59734;SDS011;64362;45.620;4.920;2022-12-13T08:49:14;10.45;;;7.90;;
59734;SDS011;64362;45.620;4.920;2022-12-13T08:52:00;9.88;;;7.80;;
59734;SDS011;64362;45.620;4.920;2022-12-13T08:54:32;10.85;;;7.60;;
59734;SDS011;64362;45.620;4.920;2022-12-13T08:57:00;10.02;;;7.75;;
59734;SDS011;64362;45.620;4.920;2022-12-13T08:59:32;10.55;;;7.97;;
59734;SDS011;64362;45.620;4.920;2022-12-13T09:01:58;9.07;;;7.63;;
59734;SDS011;64362;45.620;4.920;2022-12-13T09:04:30;9.25;;;7.32;;
59734;SDS011;64362;45.620;4.920;2022-12-13T09:06:55;9.70;;;8.13;;
59734;SDS011;64362;45.620;4.920;2022-12-13T09:09:27;9.13;;;7.43;;
59734;SDS011;64362;45.620;4.920;2022-12-13T09:11:53;8.63;;;7.13;;
59734;SDS011;64362;45.620;4.920;2022-12-13T09:14:25;9.35;;;8.00;;
59734;SDS011;64362;45.620;4.920;2022-12-13T09:16:52;9.90;;;8.05;;
59734;SDS011;64362;45.620;4.920;2022-12-13T09:19:24;10.05;;;7.70;;
59734;SDS011;64362;45.620;4.920;2022-12-13T09:21:56;8.75;;;7.20;;
59734;SDS011;64362;45.620;4.920;2022-12-13T09:24:22;8.90;;;7.88;;
59734;SDS011;64362;45.620;4.920;2022-12-13T09:26:54;10.85;;;8.10;;
59734;SDS011;64362;45.620;4.920;2022-12-13T09:29:20;10.10;;;7.90;;
59734;SDS011;64362;45.620;4.920;2022-12-13T09:31:52;9.10;;;7.75;;
59734;SDS011;64362;45.620;4.920;2022-12-13T09:34:18;9.60;;;8.50;;
59734;SDS011;64362;45.620;4.920;2022-12-13T09:36:49;8.88;;;7.95;;
59734;SDS011;64362;45.620;4.920;2022-12-13T09:39:21;10.02;;;7.90;;
59734;SDS011;64362;45.620;4.920;2022-12-13T09:41:55;9.50;;;8.00;;
59734;SDS011;64362;45.620;4.920;2022-12-13T09:47:01;9.43;;;7.95;;
59734;SDS011;64362;45.620;4.920;2022-12-13T09:49:40;8.82;;;7.47;;
59734;SDS011;64362;45.620;4.920;2022-12-13T09:52:22;8.65;;;7.25;;
59734;SDS011;64362;45.620;4.920;2022-12-13T09:54:55;8.82;;;7.55;;
59734;SDS011;64362;45.620;4.920;2022-12-13T09:57:28;7.70;;;6.40;;
59734;SDS011;64362;45.620;4.920;2022-12-13T09:59:55;7.78;;;6.93;;
59734;SDS011;64362;45.620;4.920;2022-12-13T10:02:36;9.13;;;7.65;;
59734;SDS011;64362;45.620;4.920;2022-12-13T10:07:39;8.23;;;6.65;;
59734;SDS011;64362;45.620;4.920;2022-12-13T10:10:12;8.35;;;6.57;;
59734;SDS011;64362;45.620;4.920;2022-12-13T10:12:39;7.07;;;6.38;;
59734;SDS011;64362;45.620;4.920;2022-12-13T10:15:13;7.47;;;6.32;;
59734;SDS011;64362;45.620;4.920;2022-12-13T10:17:41;7.05;;;6.25;;
59734;SDS011;64362;45.620;4.920;2022-12-13T10:20:20;8.02;;;6.85;;
59734;SDS011;64362;45.620;4.920;2022-12-13T10:22:54;7.05;;;6.13;;
59734;SDS011;64362;45.620;4.920;2022-12-13T10:25:46;7.75;;;6.60;;
59734;SDS011;64362;45.620;4.920;2022-12-13T10:28:26;8.32;;;6.70;;
59734;SDS011;64362;45.620;4.920;2022-12-13T10:31:00;7.57;;;6.78;;
59734;SDS011;64362;45.620;4.920;2022-12-13T10:33:30;7.68;;;6.82;;
59734;SDS011;64362;45.620;4.920;2022-12-13T10:39:01;7.38;;;6.28;;
59734;SDS011;64362;45.620;4.920;2022-12-13T10:41:34;8.38;;;6.93;;
59734;SDS011;64362;45.620;4.920;2022-12-13T10:47:02;8.27;;;6.75;;
59734;SDS011;64362;45.620;4.920;2022-12-13T10:49:56;7.30;;;6.40;;
59734;SDS011;64362;45.620;4.920;2022-12-13T10:52:48;7.53;;;6.55;;
59734;SDS011;64362;45.620;4.920;2022-12-13T10:57:59;7.03;;;6.20;;
59734;SDS011;64362;45.620;4.920;2022-12-13T11:00:47;8.02;;;6.65;;
59734;SDS011;64362;45.620;4.920;2022-12-13T11:03:30;8.68;;;7.20;;
59734;SDS011;64362;45.620;4.920;2022-12-13T11:08:43;7.70;;;6.63;;
59734;SDS011;64362;45.620;4.920;2022-12-13T11:11:09;7.50;;;6.63;;
59734;SDS011;64362;45.620;4.920;2022-12-13T11:13:52;7.18;;;6.20;;
59734;SDS011;64362;45.620;4.920;2022-12-13T11:16:29;6.90;;;6.20;;
59734;SDS011;64362;45.620;4.920;2022-12-13T11:21:49;7.30;;;5.88;;
59734;SDS011;64362;45.620;4.920;2022-12-13T11:24:21;6.35;;;5.72;;
59734;SDS011;64362;45.620;4.920;2022-12-13T11:26:56;8.32;;;6.82;;
59734;SDS011;64362;45.620;4.920;2022-12-13T11:38:41;8.02;;;6.57;;
59734;SDS011;64362;45.620;4.920;2022-12-13T11:41:52;7.10;;;6.25;;
59734;SDS011;64362;45.620;4.920;2022-12-13T11:44:38;6.32;;;5.65;;
59734;SDS011;64362;45.620;4.920;2022-12-13T11:47:24;7.07;;;5.95;;
59734;SDS011;64362;45.620;4.920;2022-12-13T11:50:00;6.28;;;5.68;;
59734;SDS011;64362;45.620;4.920;2022-12-13T11:52:43;7.72;;;6.40;;
59734;SDS011;64362;45.620;4.920;2022-12-13T11:55:23;6.22;;;5.18;;
59734;SDS011;64362;45.620;4.920;2022-12-13T11:58:10;6.65;;;5.95;;
59734;SDS011;64362;45.620;4.920;2022-12-13T12:03:56;6.45;;;5.72;;
59734;SDS011;64362;45.620;4.920;2022-12-13T12:06:34;6.88;;;6.18;;
59734;SDS011;64362;45.620;4.920;2022-12-13T12:09:13;5.85;;;5.25;;
59734;SDS011;64362;45.620;4.920;2022-12-13T12:11:50;7.13;;;6.03;;
59734;SDS011;64362;45.620;4.920;2022-12-13T12:14:36;6.40;;;5.72;;
59734;SDS011;64362;45.620;4.920;2022-12-13T12:17:25;7.00;;;6.07;;
59734;SDS011;64362;45.620;4.920;2022-12-13T12:19:51;7.20;;;6.13;;
59734;SDS011;64362;45.620;4.920;2022-12-13T12:22:39;7.28;;;6.07;;
59734;SDS011;64362;45.620;4.920;2022-12-13T12:28:33;7.20;;;5.85;;
59734;SDS011;64362;45.620;4.920;2022-12-13T12:40:29;7.38;;;6.65;;
59734;SDS011;64362;45.620;4.920;2022-12-13T12:43:11;8.90;;;6.70;;
59734;SDS011;64362;45.620;4.920;2022-12-13T12:57:20;9.27;;;7.65;;
59734;SDS011;64362;45.620;4.920;2022-12-13T13:00:16;7.95;;;7.13;;
59734;SDS011;64362;45.620;4.920;2022-12-13T13:02:53;8.75;;;7.80;;
59734;SDS011;64362;45.620;4.920;2022-12-13T13:11:16;7.82;;;7.03;;
59734;SDS011;64362;45.620;4.920;2022-12-13T13:13:43;7.97;;;7.18;;
59734;SDS011;64362;45.620;4.920;2022-12-13T13:19:44;8.25;;;7.32;;
59734;SDS011;64362;45.620;4.920;2022-12-13T13:21:51;8.80;;;7.57;;
59734;SDS011;64362;45.620;4.920;2022-12-13T13:24:24;8.25;;;7.45;;
59734;SDS011;64362;45.620;4.920;2022-12-13T13:26:59;8.18;;;7.38;;
59734;SDS011;64362;45.620;4.920;2022-12-13T13:29:50;8.15;;;7.35;;
59734;SDS011;64362;45.620;4.920;2022-12-13T13:34:49;7.65;;;6.85;;
59734;SDS011;64362;45.620;4.920;2022-12-13T13:39:58;7.20;;;6.50;;
59734;SDS011;64362;45.620;4.920;2022-12-13T13:48:23;8.30;;;7.43;;
59734;SDS011;64362;45.620;4.920;2022-12-13T13:51:40;7.75;;;6.75;;
59734;SDS011;64362;45.620;4.920;2022-12-13T14:16:14;8.05;;;7.18;;
59734;SDS011;64362;45.620;4.920;2022-12-13T14:30:25;7.78;;;6.97;;
59734;SDS011;64362;45.620;4.920;2022-12-13T14:32:57;8.40;;;7.55;;
59734;SDS011;64362;45.620;4.920;2022-12-13T14:35:30;7.38;;;6.53;;
59734;SDS011;64362;45.620;4.920;2022-12-13T14:38:01;7.68;;;6.88;;
59734;SDS011;64362;45.620;4.920;2022-12-13T14:40:36;7.90;;;7.07;;
59734;SDS011;64362;45.620;4.920;2022-12-13T14:43:19;7.00;;;6.30;;
59734;SDS011;64362;45.620;4.920;2022-12-13T14:45:57;8.00;;;7.00;;
59734;SDS011;64362;45.620;4.920;2022-12-13T14:48:50;7.75;;;6.95;;
59734;SDS011;64362;45.620;4.920;2022-12-13T14:54:03;8.18;;;7.28;;
59734;SDS011;64362;45.620;4.920;2022-12-13T14:56:52;7.35;;;6.65;;
59734;SDS011;64362;45.620;4.920;2022-12-13T14:59:26;8.00;;;7.20;;
59734;SDS011;64362;45.620;4.920;2022-12-13T15:01:52;8.65;;;7.28;;
59734;SDS011;64362;45.620;4.920;2022-12-13T15:04:30;8.02;;;7.22;;
59734;SDS011;64362;45.620;4.920;2022-12-13T15:07:02;8.35;;;7.55;;
59734;SDS011;64362;45.620;4.920;2022-12-13T15:09:38;8.18;;;7.32;;
59734;SDS011;64362;45.620;4.920;2022-12-13T15:12:13;8.93;;;7.90;;
59734;SDS011;64362;45.620;4.920;2022-12-13T15:14:49;8.38;;;7.57;;
59734;SDS011;64362;45.620;4.920;2022-12-13T15:17:26;8.38;;;7.57;;
59734;SDS011;64362;45.620;4.920;2022-12-13T15:22:57;8.70;;;7.80;;
59734;SDS011;64362;45.620;4.920;2022-12-13T15:25:35;8.18;;;7.30;;
59734;SDS011;64362;45.620;4.920;2022-12-13T15:28:08;8.90;;;7.90;;
59734;SDS011;64362;45.620;4.920;2022-12-13T15:30:43;9.30;;;8.30;;
59734;SDS011;64362;45.620;4.920;2022-12-13T15:33:17;9.25;;;7.93;;
59734;SDS011;64362;45.620;4.920;2022-12-13T15:38:45;8.77;;;7.55;;
59734;SDS011;64362;45.620;4.920;2022-12-13T15:41:28;8.90;;;8.00;;
59734;SDS011;64362;45.620;4.920;2022-12-13T15:44:06;8.23;;;7.43;;
59734;SDS011;64362;45.620;4.920;2022-12-13T15:47:13;8.55;;;7.72;;
59734;SDS011;64362;45.620;4.920;2022-12-13T15:49:40;8.60;;;7.70;;
59734;SDS011;64362;45.620;4.920;2022-12-13T15:52:24;8.70;;;7.75;;
59734;SDS011;64362;45.620;4.920;2022-12-13T15:55:21;9.65;;;7.75;;
59734;SDS011;64362;45.620;4.920;2022-12-13T15:57:56;8.77;;;7.88;;
59734;SDS011;64362;45.620;4.920;2022-12-13T16:00:23;8.35;;;7.55;;
59734;SDS011;64362;45.620;4.920;2022-12-13T16:05:48;8.63;;;7.72;;
59734;SDS011;64362;45.620;4.920;2022-12-13T16:10:59;8.00;;;7.25;;
59734;SDS011;64362;45.620;4.920;2022-12-13T16:13:27;8.85;;;7.78;;
59734;SDS011;64362;45.620;4.920;2022-12-13T16:16:01;8.20;;;7.40;;
59734;SDS011;64362;45.620;4.920;2022-12-13T16:18:57;8.65;;;7.82;;
59734;SDS011;64362;45.620;4.920;2022-12-13T16:21:24;8.75;;;7.88;;
59734;SDS011;64362;45.620;4.920;2022-12-13T16:23:56;8.43;;;7.35;;
59734;SDS011;64362;45.620;4.920;2022-12-13T16:26:23;8.60;;;7.70;;
59734;SDS011;64362;45.620;4.920;2022-12-13T16:28:58;8.93;;;7.68;;
59734;SDS011;64362;45.620;4.920;2022-12-13T16:31:28;8.60;;;7.70;;
59734;SDS011;64362;45.620;4.920;2022-12-13T16:34:05;8.50;;;7.60;;
59734;SDS011;64362;45.620;4.920;2022-12-13T16:36:31;9.25;;;8.23;;
59734;SDS011;64362;45.620;4.920;2022-12-13T16:39:04;8.88;;;7.97;;
59734;SDS011;64362;45.620;4.920;2022-12-13T16:41:38;9.02;;;8.13;;
59734;SDS011;64362;45.620;4.920;2022-12-13T16:44:17;8.63;;;7.38;;
59734;SDS011;64362;45.620;4.920;2022-12-13T16:46:52;9.10;;;8.20;;
59734;SDS011;64362;45.620;4.920;2022-12-13T16:49:19;8.70;;;7.80;;
59734;SDS011;64362;45.620;4.920;2022-12-13T16:51:55;9.45;;;8.10;;
59734;SDS011;64362;45.620;4.920;2022-12-13T16:54:35;9.23;;;8.32;;
59734;SDS011;64362;45.620;4.920;2022-12-13T16:57:01;9.82;;;8.25;;
59734;SDS011;64362;45.620;4.920;2022-12-13T16:59:32;10.07;;;7.82;;
59734;SDS011;64362;45.620;4.920;2022-12-13T17:01:58;9.23;;;8.23;;
59734;SDS011;64362;45.620;4.920;2022-12-13T17:04:29;10.18;;;8.38;;
59734;SDS011;64362;45.620;4.920;2022-12-13T17:07:01;10.05;;;8.25;;
59734;SDS011;64362;45.620;4.920;2022-12-13T17:09:34;9.23;;;8.32;;
59734;SDS011;64362;45.620;4.920;2022-12-13T17:12:07;10.05;;;8.63;;
59734;SDS011;64362;45.620;4.920;2022-12-13T17:14:33;9.90;;;8.45;;
59734;SDS011;64362;45.620;4.920;2022-12-13T17:17:05;10.68;;;8.80;;
59734;SDS011;64362;45.620;4.920;2022-12-13T17:19:31;9.75;;;8.75;;
59734;SDS011;64362;45.620;4.920;2022-12-13T17:22:03;10.07;;;9.07;;
59734;SDS011;64362;45.620;4.920;2022-12-13T17:24:29;9.80;;;8.30;;
59734;SDS011;64362;45.620;4.920;2022-12-13T17:27:01;10.50;;;9.00;;
59734;SDS011;64362;45.620;4.920;2022-12-13T17:29:33;9.55;;;8.48;;
59734;SDS011;64362;45.620;4.920;2022-12-13T17:32:05;10.30;;;9.27;;
59734;SDS011;64362;45.620;4.920;2022-12-13T17:34:31;11.38;;;9.02;;
59734;SDS011;64362;45.620;4.920;2022-12-13T17:37:03;11.07;;;9.82;;
59734;SDS011;64362;45.620;4.920;2022-12-13T17:39:35;10.68;;;9.57;;
59734;SDS011;64362;45.620;4.920;2022-12-13T17:42:01;11.75;;;9.77;;
59734;SDS011;64362;45.620;4.920;2022-12-13T17:44:32;13.43;;;10.70;;
59734;SDS011;64362;45.620;4.920;2022-12-13T17:47:05;12.45;;;11.10;;
59734;SDS011;64362;45.620;4.920;2022-12-13T17:49:30;14.18;;;10.88;;
59734;SDS011;64362;45.620;4.920;2022-12-13T17:52:02;13.02;;;9.75;;
59734;SDS011;64362;45.620;4.920;2022-12-13T17:54:41;12.43;;;9.98;;
59734;SDS011;64362;45.620;4.920;2022-12-13T17:57:06;10.73;;;9.65;;
59734;SDS011;64362;45.620;4.920;2022-12-13T17:59:41;13.10;;;9.00;;
59734;SDS011;64362;45.620;4.920;2022-12-13T18:02:07;12.52;;;9.20;;